Villa Atuel, Argentina
Current Conditions -  °F | °C
As of 7:00 PM on Friday 19 Dec 2014 (Local Time) from SAME Reporting Station
Few Clouds Few Clouds  
Wind Chill: 35°   Ceiling: Unl
Heat Index: 35°   Visibility: 6mi
Dew Point: 10°   Wind: 7mph
Humidity: 22%   Direction: 140°SE
Pressure: 29.44"   Gusts: NA
Location:  34.83°S, 67.92°W
Report Text: SAME 192200Z 14006KT 9999 FEW040TCU 35/10 Q0997
Loading
Personal Weather Stations






























Interactive Weather Map New forecast layout! Learn more

10-Day Weather Forecast

Advertisements
Track Severe Weather on mobile